Time;durP1;ratioP1;P1;durP2;ratioP2;P2;SDS_P1;SDS_P2;PMS_P1;PMS_P2;Temp;Humidity;BMP_temperature;BMP_pressure;BME280_temperature;BME280_humidity;BME280_pressure;Samples;Min_cycle;Max_cycle;Signal;HPM_P1;HPM_P2
2021/08/31 00:01:21;;;;;;;5.75;4.50;;;15.70;95.40;;;;;;5053747;28;20430;-69
2021/08/31 00:03:47;;;;;;;5.22;4.53;;;15.70;95.40;;;;;;5063811;28;20094;-69
2021/08/31 00:06:12;;;;;;;6.20;4.53;;;15.70;95.40;;;;;;5072784;28;20028;-69
2021/08/31 00:08:38;;;;;;;5.15;4.47;;;15.60;95.40;;;;;;5057220;28;20112;-69
2021/08/31 00:11:04;;;;;;;5.10;4.43;;;15.60;95.50;;;;;;5050558;28;20377;-69
2021/08/31 00:13:29;;;;;;;6.18;4.60;;;15.60;95.50;;;;;;5055910;28;20028;-69
2021/08/31 00:15:55;;;;;;;5.03;4.45;;;15.60;95.50;;;;;;5052362;28;20021;-69
2021/08/31 00:18:21;;;;;;;6.43;4.30;;;15.60;95.50;;;;;;5054451;28;20056;-68
2021/08/31 00:20:46;;;;;;;5.40;4.43;;;15.60;95.50;;;;;;5073533;28;20033;-69
2021/08/31 00:23:13;;;;;;;5.82;4.90;;;15.60;95.60;;;;;;5057852;28;20021;-69
2021/08/31 00:25:39;;;;;;;5.75;4.20;;;15.60;95.60;;;;;;5067638;28;20039;-69
2021/08/31 00:28:04;;;;;;;5.30;4.03;;;15.60;95.60;;;;;;5068905;28;20028;-68
2021/08/31 00:30:30;;;;;;;6.45;4.60;;;15.60;95.60;;;;;;5068282;28;20393;-68
2021/08/31 00:32:56;;;;;;;5.68;4.57;;;15.60;95.60;;;;;;5067143;28;20028;-69
2021/08/31 00:35:21;;;;;;;8.90;4.50;;;15.50;95.50;;;;;;5072095;28;20050;-69
2021/08/31 00:37:47;;;;;;;5.70;4.68;;;15.50;95.60;;;;;;5058423;28;20029;-69
2021/08/31 00:40:13;;;;;;;4.93;4.43;;;15.50;95.60;;;;;;5052354;28;20024;-69
2021/08/31 00:42:38;;;;;;;6.22;4.20;;;15.50;95.70;;;;;;5059618;28;20166;-69
2021/08/31 00:45:04;;;;;;;5.80;4.72;;;15.50;95.70;;;;;;5051717;28;20053;-69
2021/08/31 00:47:30;;;;;;;5.45;4.00;;;15.50;95.70;;;;;;5061759;28;20028;-68
2021/08/31 00:49:56;;;;;;;6.35;4.65;;;15.50;95.70;;;;;;5072707;28;20472;-68
2021/08/31 00:52:21;;;;;;;5.43;4.60;;;15.60;95.70;;;;;;5071172;28;20016;-69
2021/08/31 00:54:48;;;;;;;5.78;4.40;;;15.50;95.70;;;;;;5071374;28;20029;-68
2021/08/31 00:57:14;;;;;;;7.13;4.93;;;15.50;95.70;;;;;;5061852;28;20066;-69
2021/08/31 00:59:40;;;;;;;7.30;4.78;;;15.50;95.70;;;;;;5054693;28;20415;-68
2021/08/31 01:02:06;;;;;;;6.13;4.50;;;15.50;95.70;;;;;;5063976;28;20024;-69
2021/08/31 01:04:32;;;;;;;5.63;4.30;;;15.50;95.70;;;;;;5052080;28;20020;-69
2021/08/31 01:06:58;;;;;;;6.95;5.18;;;15.50;95.70;;;;;;5051427;28;20033;-69
2021/08/31 01:09:26;;;;;;;7.93;4.75;;;15.50;95.70;;;;;;5052335;28;20547;-69
2021/08/31 01:11:53;;;;;;;5.20;4.68;;;15.50;95.70;;;;;;5033762;28;20039;-69
2021/08/31 01:14:20;;;;;;;6.47;4.78;;;15.50;95.70;;;;;;5049038;28;20028;-69
2021/08/31 01:16:47;;;;;;;7.10;4.55;;;15.50;95.70;;;;;;5053496;28;20465;-69
2021/08/31 01:19:13;;;;;;;6.57;5.25;;;15.50;95.80;;;;;;5050886;28;20036;-69
2021/08/31 01:21:38;;;;;;;5.40;4.43;;;15.50;95.80;;;;;;5033510;28;20033;-68
2021/08/31 01:24:04;;;;;;;6.78;5.32;;;15.50;95.80;;;;;;5069649;28;20032;-69
2021/08/31 01:26:30;;;;;;;5.25;4.55;;;15.50;95.70;;;;;;5057496;28;20447;-69
2021/08/31 01:28:57;;;;;;;6.88;5.07;;;15.50;95.80;;;;;;5051534;28;20497;-69
2021/08/31 01:31:23;;;;;;;5.95;4.63;;;15.50;95.80;;;;;;5050811;28;20033;-69
2021/08/31 01:33:49;;;;;;;6.65;5.75;;;15.40;95.80;;;;;;5051932;28;20028;-69
2021/08/31 01:36:24;;;;;;;5.68;4.80;;;15.40;95.80;;;;;;5060687;28;20036;-69
2021/08/31 01:38:53;;;;;;;7.53;4.75;;;15.50;95.90;;;;;;5053090;28;20031;-69
2021/08/31 01:41:18;;;;;;;5.00;4.45;;;15.50;96.10;;;;;;5059949;28;20035;-69
2021/08/31 01:43:44;;;;;;;5.10;4.60;;;15.50;95.80;;;;;;5052580;28;20389;-69
2021/08/31 01:46:10;;;;;;;5.78;4.68;;;15.50;95.80;;;;;;5050441;28;20021;-69
2021/08/31 01:48:36;;;;;;;6.15;5.30;;;15.50;95.80;;;;;;5061929;28;20032;-69
2021/08/31 01:51:03;;;;;;;6.03;5.25;;;15.50;95.80;;;;;;5071518;28;20048;-69
2021/08/31 01:53:28;;;;;;;6.05;5.13;;;15.50;95.80;;;;;;5061474;28;20415;-68
2021/08/31 01:55:54;;;;;;;5.28;4.78;;;15.50;95.80;;;;;;5050709;28;20100;-69
2021/08/31 01:58:19;;;;;;;7.43;5.25;;;15.50;95.80;;;;;;5058841;28;20052;-69
2021/08/31 02:00:46;;;;;;;7.93;6.10;;;15.50;95.90;;;;;;5063784;28;20040;-69
2021/08/31 02:03:11;;;;;;;6.20;5.15;;;15.50;95.90;;;;;;5051066;28;20416;-69
2021/08/31 02:05:37;;;;;;;9.25;5.95;;;15.50;95.90;;;;;;5050486;28;20043;-69
2021/08/31 02:10:37;;;;;;;7.43;5.57;;;15.50;95.80;;;;;;5036939;28;20521;-70
2021/08/31 02:13:03;;;;;;;8.88;5.57;;;15.50;95.80;;;;;;5037430;28;20072;-70
2021/08/31 02:15:29;;;;;;;6.78;5.38;;;15.50;95.90;;;;;;5049196;28;20048;-70
2021/08/31 02:17:55;;;;;;;9.60;5.63;;;15.50;95.80;;;;;;5032232;28;20079;-70
2021/08/31 02:20:21;;;;;;;6.93;5.25;;;15.40;95.90;;;;;;5031615;28;20022;-69
2021/08/31 02:22:46;;;;;;;7.95;5.20;;;15.40;95.90;;;;;;5042042;28;20028;-68
2021/08/31 02:25:12;;;;;;;6.25;5.53;;;15.40;95.90;;;;;;5037932;28;20064;-70
2021/08/31 02:27:38;;;;;;;7.57;5.57;;;15.50;95.90;;;;;;5050056;28;20395;-70
2021/08/31 02:30:07;;;;;;;8.73;5.50;;;15.40;95.90;;;;;;5050130;28;20025;-70
2021/08/31 02:32:33;;;;;;;7.93;5.72;;;15.50;95.90;;;;;;5050419;28;20056;-70
2021/08/31 02:34:58;;;;;;;6.97;5.65;;;15.40;95.90;;;;;;5049390;28;20028;-70
2021/08/31 02:37:24;;;;;;;6.45;5.18;;;15.40;96.10;;;;;;5013146;28;20333;-70
2021/08/31 02:39:50;;;;;;;7.13;5.57;;;15.50;95.90;;;;;;5042818;28;20021;-70
2021/08/31 02:42:15;;;;;;;8.02;5.40;;;15.50;95.90;;;;;;5050207;28;20036;-69
2021/08/31 02:44:41;;;;;;;6.55;5.45;;;15.50;95.90;;;;;;5049791;28;20032;-72
2021/08/31 02:47:07;;;;;;;7.40;5.70;;;15.50;95.90;;;;;;5050383;28;20481;-67
2021/08/31 02:49:32;;;;;;;8.32;5.70;;;15.40;95.90;;;;;;5050547;28;20400;-67
2021/08/31 02:51:58;;;;;;;7.53;5.60;;;15.40;95.90;;;;;;5035857;28;20029;-68
2021/08/31 02:54:24;;;;;;;8.40;5.40;;;15.40;95.80;;;;;;5030254;28;20121;-68
2021/08/31 02:56:49;;;;;;;8.43;6.00;;;15.40;95.90;;;;;;5029695;28;20017;-73
2021/08/31 02:59:15;;;;;;;8.65;5.57;;;15.30;95.80;;;;;;5030366;28;20466;-67
2021/08/31 03:04:28;;;;;;;7.07;5.85;;;15.40;95.90;;;;;;5034471;28;20036;-67
2021/08/31 03:06:53;;;;;;;8.88;5.95;;;15.30;95.90;;;;;;5034010;28;20193;-67
2021/08/31 03:09:19;;;;;;;8.52;6.07;;;15.30;95.90;;;;;;5035901;28;20041;-67
2021/08/31 03:11:45;;;;;;;7.00;5.47;;;15.30;95.90;;;;;;5061402;28;20029;-66
2021/08/31 03:14:11;;;;;;;8.05;5.55;;;15.30;95.90;;;;;;5054124;28;20021;-67
2021/08/31 03:16:38;;;;;;;6.80;5.50;;;15.30;96.00;;;;;;5064842;28;20468;-66
2021/08/31 03:19:03;;;;;;;7.93;5.88;;;15.30;96.00;;;;;;5058854;28;20499;-66
2021/08/31 03:21:29;;;;;;;7.03;5.55;;;15.30;96.00;;;;;;5054198;28;20021;-66
2021/08/31 03:23:54;;;;;;;7.20;5.90;;;15.30;96.00;;;;;;5053962;28;20035;-68
2021/08/31 03:26:20;;;;;;;6.90;5.78;;;15.20;95.90;;;;;;5053715;28;20481;-73
2021/08/31 03:28:46;;;;;;;7.13;6.13;;;15.20;96.00;;;;;;5053833;28;20113;-66
2021/08/31 03:31:11;;;;;;;7.57;6.35;;;15.20;95.90;;;;;;5054019;28;20063;-66
2021/08/31 03:33:37;;;;;;;7.57;6.00;;;15.20;96.00;;;;;;5053857;28;20033;-67
2021/08/31 03:36:05;;;;;;;7.80;5.90;;;15.20;96.00;;;;;;5053198;28;20166;-73
2021/08/31 03:38:31;;;;;;;10.18;5.95;;;15.20;96.00;;;;;;5053553;28;20050;-69
2021/08/31 03:40:57;;;;;;;7.57;6.13;;;15.20;96.00;;;;;;5038583;28;20028;-70
2021/08/31 03:43:22;;;;;;;8.00;6.35;;;15.20;96.10;;;;;;5071461;28;20404;-65
2021/08/31 03:45:48;;;;;;;8.77;5.60;;;15.20;96.00;;;;;;5073015;28;20021;-66
2021/08/31 03:48:13;;;;;;;8.65;6.40;;;15.20;96.00;;;;;;5073515;28;20024;-65
2021/08/31 03:50:39;;;;;;;9.02;6.40;;;15.10;96.00;;;;;;5073468;28;20028;-70
2021/08/31 03:53:04;;;;;;;7.20;5.97;;;15.10;96.00;;;;;;5073471;28;20020;-66
2021/08/31 03:55:30;;;;;;;8.13;6.47;;;15.10;96.00;;;;;;5072838;28;20464;-66
2021/08/31 03:57:56;;;;;;;8.98;6.45;;;15.10;96.00;;;;;;5073461;28;20027;-66
2021/08/31 04:00:21;;;;;;;9.05;5.85;;;15.10;96.10;;;;;;5060265;28;20033;-67
2021/08/31 04:02:47;;;;;;;9.63;6.50;;;15.10;96.10;;;;;;5053499;28;20054;-66
2021/08/31 04:05:12;;;;;;;11.30;6.40;;;15.10;96.10;;;;;;5052848;28;20100;-66
2021/08/31 04:07:38;;;;;;;11.20;6.47;;;15.00;96.10;;;;;;5053109;28;20076;-67
2021/08/31 04:10:04;;;;;;;7.40;5.90;;;15.00;96.10;;;;;;5052949;28;20472;-67
2021/08/31 04:12:30;;;;;;;8.32;6.47;;;15.00;96.10;;;;;;5055670;28;20036;-69
2021/08/31 04:14:55;;;;;;;9.98;7.63;;;15.00;96.10;;;;;;5052421;28;20021;-67
2021/08/31 04:17:21;;;;;;;7.93;6.95;;;15.00;96.10;;;;;;5053050;28;20025;-65
2021/08/31 04:19:46;;;;;;;8.05;6.03;;;15.00;96.10;;;;;;5053136;28;20431;-66
2021/08/31 04:22:12;;;;;;;10.15;7.10;;;15.00;96.20;;;;;;5053206;28;20086;-70
2021/08/31 04:24:37;;;;;;;11.82;7.32;;;15.00;96.20;;;;;;5052244;28;20477;-71
2021/08/31 04:27:04;;;;;;;9.30;6.85;;;15.00;96.20;;;;;;5052995;28;20500;-65
2021/08/31 04:29:29;;;;;;;8.90;6.63;;;15.00;96.20;;;;;;5052866;28;20028;-65
2021/08/31 04:31:55;;;;;;;9.05;6.85;;;15.00;96.30;;;;;;5052880;28;20542;-65
2021/08/31 04:34:20;;;;;;;8.90;6.78;;;15.00;96.30;;;;;;5050654;28;20428;-67
2021/08/31 04:36:46;;;;;;;9.77;7.40;;;15.00;96.30;;;;;;5056444;28;20385;-72
2021/08/31 04:39:11;;;;;;;10.00;6.88;;;15.10;96.30;;;;;;5069248;28;20100;-66
2021/08/31 04:41:37;;;;;;;8.57;6.95;;;15.00;96.20;;;;;;5055818;28;20081;-65
2021/08/31 04:44:03;;;;;;;9.65;7.60;;;15.10;96.30;;;;;;5072491;28;20028;-67
2021/08/31 04:46:28;;;;;;;8.73;6.57;;;15.00;96.30;;;;;;5064784;28;20027;-70
2021/08/31 04:48:55;;;;;;;9.73;7.03;;;15.10;96.30;;;;;;5052031;28;20132;-66
2021/08/31 04:51:20;;;;;;;10.60;6.07;;;15.10;96.30;;;;;;5052204;28;20060;-69
2021/08/31 04:53:46;;;;;;;7.35;6.47;;;15.00;96.30;;;;;;5052023;28;20056;-65
2021/08/31 04:56:12;;;;;;;7.95;6.55;;;15.00;96.30;;;;;;5051365;28;20066;-65
2021/08/31 04:58:37;;;;;;;9.10;6.78;;;15.00;96.30;;;;;;5064093;28;20425;-66
2021/08/31 05:01:03;;;;;;;9.25;7.60;;;15.10;96.30;;;;;;5072557;28;20017;-69
2021/08/31 05:03:29;;;;;;;9.52;6.93;;;15.00;96.30;;;;;;5072211;28;20071;-72
2021/08/31 05:05:54;;;;;;;12.07;7.50;;;15.00;96.30;;;;;;5069436;28;20021;-65
2021/08/31 05:08:20;;;;;;;8.10;7.03;;;15.00;96.30;;;;;;5052078;28;20025;-66
2021/08/31 05:10:45;;;;;;;8.07;6.32;;;15.00;96.30;;;;;;5060660;28;20029;-67
2021/08/31 05:13:11;;;;;;;13.07;7.85;;;15.00;96.30;;;;;;5034206;28;20070;-69
2021/08/31 05:15:37;;;;;;;11.50;7.18;;;15.10;96.40;;;;;;5051169;28;20013;-67
2021/08/31 05:18:04;;;;;;;9.32;7.28;;;15.00;96.30;;;;;;5041094;28;20024;-67
2021/08/31 05:20:32;;;;;;;9.88;7.22;;;15.00;96.40;;;;;;5072143;28;20021;-67
2021/08/31 05:22:57;;;;;;;10.77;6.60;;;15.00;96.30;;;;;;5070987;28;20040;-73
2021/08/31 05:25:23;;;;;;;9.70;7.25;;;15.10;96.40;;;;;;5067734;28;20409;-68
2021/08/31 05:27:49;;;;;;;11.50;7.35;;;15.00;96.30;;;;;;5051856;28;20100;-66
2021/08/31 05:30:15;;;;;;;11.95;7.88;;;15.00;96.30;;;;;;5051894;28;20029;-67
2021/08/31 05:32:40;;;;;;;12.35;7.45;;;15.00;96.30;;;;;;5052123;28;20131;-68
2021/08/31 05:35:06;;;;;;;8.95;7.03;;;15.00;96.40;;;;;;5051189;28;20091;-69
2021/08/31 05:37:32;;;;;;;11.85;7.90;;;15.00;96.40;;;;;;5051863;28;20025;-69
2021/08/31 05:39:57;;;;;;;9.65;7.43;;;15.00;96.40;;;;;;5047681;28;20029;-72
2021/08/31 05:42:23;;;;;;;10.55;7.32;;;15.00;96.40;;;;;;5051814;28;20082;-67
2021/08/31 05:44:48;;;;;;;8.70;7.10;;;15.00;96.40;;;;;;5050959;28;20021;-68
2021/08/31 05:47:14;;;;;;;12.48;7.72;;;15.00;96.40;;;;;;5042564;28;20520;-69
2021/08/31 05:49:41;;;;;;;9.23;7.50;;;15.00;96.40;;;;;;5031869;28;20429;-68
2021/08/31 05:52:07;;;;;;;11.85;7.65;;;15.00;96.40;;;;;;5031805;28;20448;-68
2021/08/31 05:54:33;;;;;;;10.32;7.45;;;15.00;96.50;;;;;;5033128;28;20113;-67
2021/08/31 05:57:01;;;;;;;9.98;7.50;;;15.00;96.50;;;;;;5051150;28;20100;-69
2021/08/31 05:59:27;;;;;;;14.00;8.68;;;15.00;96.50;;;;;;5042098;28;20010;-70
2021/08/31 06:01:52;;;;;;;10.68;7.93;;;15.00;96.50;;;;;;5060968;28;20037;-72
2021/08/31 06:04:22;;;;;;;10.75;8.02;;;15.00;96.50;;;;;;5064987;28;20025;-65
2021/08/31 06:06:48;;;;;;;10.23;8.25;;;15.10;96.50;;;;;;5031382;28;20029;-67
2021/08/31 06:09:14;;;;;;;11.77;7.45;;;15.10;96.50;;;;;;5031222;28;20033;-65
2021/08/31 06:11:40;;;;;;;10.38;7.25;;;15.10;96.50;;;;;;5031589;28;20393;-65
2021/08/31 06:14:07;;;;;;;11.10;8.23;;;15.10;96.50;;;;;;5038681;28;20028;-66
2021/08/31 06:16:33;;;;;;;9.95;7.03;;;15.20;96.60;;;;;;5051553;28;20572;-64
2021/08/31 06:18:59;;;;;;;60.30;43.33;;;15.20;96.50;;;;;;5051766;28;20056;-65
2021/08/31 06:21:25;;;;;;;18.88;14.18;;;15.20;96.50;;;;;;5051580;28;20071;-74
2021/08/31 06:23:50;;;;;;;11.80;9.15;;;15.30;96.60;;;;;;5051738;28;20021;-65
2021/08/31 06:26:16;;;;;;;10.40;7.60;;;15.30;96.50;;;;;;5051125;28;20039;-65
2021/08/31 06:28:42;;;;;;;11.07;7.95;;;15.30;96.50;;;;;;5051068;28;20025;-66
2021/08/31 06:31:07;;;;;;;10.30;7.40;;;15.30;96.50;;;;;;5051031;28;20033;-66
2021/08/31 06:33:33;;;;;;;11.85;8.23;;;15.40;96.50;;;;;;5070298;28;20094;-72
2021/08/31 06:35:59;;;;;;;8.88;7.05;;;15.40;96.50;;;;;;5068449;28;20388;-65
2021/08/31 06:38:24;;;;;;;10.82;7.68;;;15.40;96.50;;;;;;5050936;28;20020;-65
2021/08/31 06:40:50;;;;;;;10.52;7.53;;;15.50;96.50;;;;;;5050959;28;20392;-64
2021/08/31 06:43:15;;;;;;;12.88;7.82;;;15.50;96.50;;;;;;5050807;28;20025;-70
2021/08/31 06:45:41;;;;;;;11.95;7.60;;;15.50;96.50;;;;;;5050539;28;20047;-66
2021/08/31 06:48:07;;;;;;;9.32;7.20;;;15.50;96.50;;;;;;5035558;28;20025;-68
2021/08/31 06:50:33;;;;;;;153.40;101.60;;;15.50;96.40;;;;;;5030792;28;20029;-64
2021/08/31 06:52:59;;;;;;;46.85;34.83;;;15.50;96.40;;;;;;5042684;28;20469;-64
2021/08/31 06:55:24;;;;;;;11.52;8.75;;;15.50;96.40;;;;;;5044385;28;20029;-66
2021/08/31 06:57:50;;;;;;;11.05;8.02;;;15.50;96.40;;;;;;5030486;28;20425;-66
2021/08/31 07:00:16;;;;;;;13.00;7.43;;;15.60;96.40;;;;;;5045418;28;20037;-69
2021/08/31 07:02:41;;;;;;;12.25;7.65;;;15.50;96.40;;;;;;5050551;28;20052;-64
2021/08/31 07:05:08;;;;;;;9.95;7.43;;;15.60;96.30;;;;;;5043980;28;20021;-65
2021/08/31 07:07:34;;;;;;;12.23;7.78;;;15.60;96.30;;;;;;5049335;28;20394;-65
2021/08/31 07:10:00;;;;;;;7.82;6.30;;;15.50;96.20;;;;;;5050026;28;20067;-64
2021/08/31 07:12:25;;;;;;;52.72;37.42;;;15.50;96.20;;;;;;5048538;28;20064;-65
2021/08/31 07:14:52;;;;;;;13.63;10.40;;;15.50;96.30;;;;;;5037260;28;20025;-65
2021/08/31 07:17:18;;;;;;;12.75;6.93;;;15.50;96.30;;;;;;5041113;28;20422;-65
2021/08/31 07:19:44;;;;;;;9.80;7.95;;;15.60;96.30;;;;;;5032213;28;20029;-64
2021/08/31 07:22:09;;;;;;;9.82;7.35;;;15.60;96.30;;;;;;5050338;28;20075;-67
2021/08/31 07:24:35;;;;;;;9.80;6.55;;;15.60;96.20;;;;;;5049838;28;20060;-68
2021/08/31 07:27:01;;;;;;;9.20;7.10;;;15.60;96.20;;;;;;5050360;28;20029;-68
2021/08/31 07:29:27;;;;;;;8.77;6.45;;;15.60;96.10;;;;;;5050241;28;20435;-70
2021/08/31 07:31:53;;;;;;;9.32;7.18;;;15.50;96.10;;;;;;5063950;28;20032;-66
2021/08/31 07:34:19;;;;;;;9.45;7.00;;;15.60;96.20;;;;;;5068632;28;20587;-66
2021/08/31 07:36:46;;;;;;;12.43;6.97;;;15.60;96.10;;;;;;5049969;28;20104;-67
2021/08/31 07:39:12;;;;;;;8.75;6.70;;;15.60;96.00;;;;;;5050223;28;20473;-71
2021/08/31 07:41:38;;;;;;;8.23;7.10;;;15.60;96.00;;;;;;5050363;28;20425;-68
2021/08/31 07:44:03;;;;;;;8.82;6.75;;;15.60;96.00;;;;;;5050229;28;20029;-68
2021/08/31 07:46:29;;;;;;;7.93;6.07;;;15.70;96.00;;;;;;5034023;28;20108;-70
2021/08/31 07:48:55;;;;;;;8.45;6.63;;;15.70;96.00;;;;;;5053641;28;20025;-66
2021/08/31 07:51:20;;;;;;;8.52;6.65;;;15.70;95.90;;;;;;5053991;28;20017;-65
2021/08/31 07:53:46;;;;;;;6.90;6.00;;;15.80;95.90;;;;;;5052099;28;20032;-66
2021/08/31 07:56:12;;;;;;;8.48;6.53;;;15.70;95.80;;;;;;5053493;28;20024;-67
2021/08/31 07:58:37;;;;;;;9.30;6.07;;;15.80;95.80;;;;;;5053589;28;20071;-72
2021/08/31 08:01:04;;;;;;;8.90;6.15;;;15.80;95.80;;;;;;5053462;28;20071;-66
2021/08/31 08:03:29;;;;;;;7.50;5.93;;;15.90;95.80;;;;;;5055718;28;20033;-73
2021/08/31 08:05:55;;;;;;;6.63;5.25;;;15.90;95.70;;;;;;5053298;28;20029;-66
2021/08/31 08:08:21;;;;;;;8.55;6.13;;;15.90;95.70;;;;;;5053153;28;20071;-69
2021/08/31 08:10:46;;;;;;;7.13;5.18;;;16.00;95.60;;;;;;5094542;22;20053;-90
2021/08/31 08:13:12;;;;;;;5.78;5.18;;;16.00;95.60;;;;;;5036892;28;20033;-88
2021/08/31 08:15:38;;;;;;;6.82;5.60;;;16.00;95.50;;;;;;5036717;28;20401;-89
2021/08/31 08:18:04;;;;;;;7.43;5.03;;;16.10;95.40;;;;;;5059880;28;20033;-88
2021/08/31 08:20:30;;;;;;;8.73;5.38;;;16.20;95.40;;;;;;5062118;28;20056;-88
2021/08/31 08:22:56;;;;;;;8.18;5.50;;;16.20;95.30;;;;;;5060147;28;20033;-88
2021/08/31 08:25:21;;;;;;;8.98;5.13;;;16.30;95.30;;;;;;5056729;28;20039;-89
2021/08/31 08:27:47;;;;;;;7.30;4.80;;;16.30;95.10;;;;;;5054368;28;20041;-88
2021/08/31 08:30:13;;;;;;;6.85;5.00;;;16.30;95.00;;;;;;5042556;28;20028;-89
2021/08/31 08:32:42;;;;;;;5.95;5.10;;;16.40;95.00;;;;;;5044882;28;20121;-90
2021/08/31 08:35:10;;;;;;;6.30;4.85;;;16.40;94.90;;;;;;5039748;28;20024;-92
2021/08/31 08:37:36;;;;;;;6.05;5.03;;;16.40;94.80;;;;;;5039832;28;20025;-92
2021/08/31 08:40:02;;;;;;;7.95;4.90;;;16.40;94.80;;;;;;5039836;28;20021;-92
2021/08/31 08:42:27;;;;;;;6.40;4.40;;;16.40;94.70;;;;;;5041265;28;20055;-91
2021/08/31 08:44:53;;;;;;;6.30;4.75;;;16.40;94.60;;;;;;5037341;28;20753;-92
2021/08/31 08:47:19;;;;;;;6.00;4.68;;;16.40;94.60;;;;;;5038580;28;20083;-90
2021/08/31 08:49:46;;;;;;;7.00;4.28;;;16.50;94.60;;;;;;5048096;28;20025;-91
2021/08/31 08:52:12;;;;;;;9.13;4.97;;;16.50;94.50;;;;;;5060999;28;20021;-91
2021/08/31 08:54:40;;;;;;;4.82;4.07;;;16.50;94.50;;;;;;5060628;28;20051;-90
2021/08/31 08:57:06;;;;;;;4.95;4.40;;;16.60;94.40;;;;;;5059920;28;20013;-90
2021/08/31 08:59:31;;;;;;;6.90;4.07;;;16.50;94.40;;;;;;5040396;28;20025;-90
2021/08/31 09:01:57;;;;;;;7.22;4.40;;;16.60;94.30;;;;;;5052695;28;20039;-90
2021/08/31 09:05:03;;;;;;;5.47;4.28;;;16.60;94.20;;;;;;5048533;28;20009;-90
2021/08/31 09:07:29;;;;;;;5.32;4.22;;;16.60;94.10;;;;;;4996026;28;20037;-90
2021/08/31 09:10:14;;;;;;;5.32;4.28;;;16.60;94.10;;;;;;4978050;28;20034;-90
2021/08/31 09:12:42;;;;;;;4.68;4.07;;;16.60;94.10;;;;;;5016331;28;20171;-91
2021/08/31 09:15:28;;;;;;;6.00;4.20;;;16.70;94.20;;;;;;5036324;28;20025;-90
2021/08/31 09:20:32;;;;;;;5.20;3.72;;;16.70;94.00;;;;;;5054925;28;20028;-91
2021/08/31 09:22:58;;;;;;;4.53;3.58;;;16.80;93.90;;;;;;5035857;28;20056;-91
2021/08/31 09:25:36;;;;;;;7.00;3.67;;;16.80;93.90;;;;;;5036213;28;20052;-90
2021/08/31 09:28:02;;;;;;;4.70;3.60;;;16.80;93.80;;;;;;5053430;28;20102;-90
2021/08/31 09:30:30;;;;;;;8.50;4.18;;;16.80;93.90;;;;;;5047785;28;20033;-90
2021/08/31 09:33:08;;;;;;;4.65;3.67;;;16.90;93.80;;;;;;5045810;28;20025;-91
2021/08/31 09:35:42;;;;;;;4.80;3.92;;;16.90;93.70;;;;;;5037844;28;20512;-91
2021/08/31 09:38:13;;;;;;;5.82;3.90;;;17.00;93.60;;;;;;5034416;28;20075;-91
2021/08/31 09:40:49;;;;;;;3.90;3.33;;;17.00;93.60;;;;;;5018786;28;20084;-92
2021/08/31 09:43:17;;;;;;;5.20;3.95;;;17.00;93.50;;;;;;5035308;28;20025;-91
2021/08/31 09:46:01;;;;;;;5.75;4.28;;;17.10;93.60;;;;;;5039533;28;20053;-92
2021/08/31 09:48:27;;;;;;;66.43;43.03;;;17.20;93.50;;;;;;5081458;22;20052;-70
2021/08/31 09:50:56;;;;;;;7.20;6.10;;;17.20;93.50;;;;;;5052067;28;20025;-66
2021/08/31 09:53:27;;;;;;;5.13;4.28;;;17.30;93.30;;;;;;5050940;28;20048;-66
2021/08/31 09:56:01;;;;;;;8.00;4.38;;;17.40;93.30;;;;;;5049697;28;20025;-67
2021/08/31 09:58:28;;;;;;;5.03;4.00;;;17.50;93.20;;;;;;5050296;28;20029;-67
2021/08/31 10:00:54;;;;;;;4.70;3.65;;;17.70;93.20;;;;;;5051030;28;20096;-67
2021/08/31 10:03:21;;;;;;;5.63;4.50;;;17.90;93.10;;;;;;5052829;28;20048;-67
2021/08/31 10:05:50;;;;;;;5.82;3.88;;;18.00;93.00;;;;;;5049588;28;20029;-67
2021/08/31 10:08:17;;;;;;;7.90;4.30;;;18.20;93.10;;;;;;5049394;28;20029;-67
2021/08/31 10:10:46;;;;;;;4.65;4.05;;;18.50;93.10;;;;;;5049713;28;20106;-67
2021/08/31 10:13:35;;;;;;;7.82;3.92;;;18.70;92.90;;;;;;5051087;28;20020;-67
2021/08/31 10:16:00;;;;;;;4.40;3.50;;;19.00;92.80;;;;;;5050690;28;20035;-67
2021/08/31 10:18:28;;;;;;;4.80;3.65;;;19.30;92.70;;;;;;5055534;28;20024;-67
2021/08/31 10:21:00;;;;;;;5.90;3.38;;;19.60;92.30;;;;;;5066650;28;20028;-67
2021/08/31 10:23:32;;;;;;;5.38;4.10;;;19.80;92.00;;;;;;5031158;28;20051;-67
2021/08/31 10:26:22;;;;;;;6.30;4.20;;;20.00;91.50;;;;;;5032858;28;20500;-67
2021/08/31 10:28:49;;;;;;;4.50;3.42;;;20.30;91.10;;;;;;5050892;28;20029;-67
2021/08/31 10:31:29;;;;;;;6.05;3.95;;;20.40;91.00;;;;;;5048729;28;20074;-68
2021/08/31 10:33:55;;;;;;;5.72;3.85;;;20.50;90.50;;;;;;5048219;28;20767;-69
2021/08/31 10:36:37;;;;;;;4.68;3.40;;;20.60;90.20;;;;;;5049487;28;20029;-68
2021/08/31 10:39:06;;;;;;;;;;;20.50;88.60;;;;;;5046251;28;20036;-68
2021/08/31 10:41:47;;;;;;;4.53;3.25;;;20.40;90.00;;;;;;5049538;28;19908;-68
2021/08/31 10:44:34;;;;;;;4.47;3.75;;;20.30;89.60;;;;;;5050774;28;20481;-68
2021/08/31 10:47:11;;;;;;;5.55;3.33;;;20.20;89.30;;;;;;5050090;28;20469;-67
2021/08/31 10:49:55;;;;;;;4.93;3.53;;;20.10;88.70;;;;;;5049589;28;20039;-67
2021/08/31 10:52:35;;;;;;;5.70;3.53;;;20.00;88.50;;;;;;5044532;28;20029;-68
2021/08/31 10:55:06;;;;;;;6.20;3.33;;;20.00;88.20;;;;;;5049852;28;20078;-67
2021/08/31 10:57:35;;;;;;;6.63;3.17;;;19.90;88.30;;;;;;5050450;28;20025;-68
2021/08/31 11:00:01;;;;;;;6.70;3.15;;;19.90;88.10;;;;;;5045587;28;20095;-68
2021/08/31 11:02:47;;;;;;;5.65;3.28;;;20.00;88.20;;;;;;5050461;28;20421;-67
2021/08/31 11:05:25;;;;;;;4.25;3.65;;;20.00;87.20;;;;;;5048679;28;20105;-67
2021/08/31 11:07:56;;;;;;;3.40;3.10;;;20.00;87.10;;;;;;5050522;28;20025;-68
2021/08/31 11:10:36;;;;;;;3.85;3.08;;;19.90;87.00;;;;;;5050164;28;20220;-67
2021/08/31 11:13:13;;;;;;;3.13;2.30;;;19.90;86.40;;;;;;5049896;28;20541;-68
2021/08/31 11:15:40;;;;;;;5.75;3.30;;;19.80;86.20;;;;;;5049865;28;20416;-67
2021/08/31 11:18:10;;;;;;;3.83;3.13;;;19.70;86.20;;;;;;5046128;28;20021;-68
2021/08/31 11:20:38;;;;;;;4.65;3.30;;;19.60;85.90;;;;;;5046263;28;20025;-67
2021/08/31 11:23:18;;;;;;;5.22;3.13;;;19.50;86.20;;;;;;5052696;28;20037;-67
2021/08/31 11:25:54;;;;;;;4.68;3.00;;;19.40;86.00;;;;;;5050748;28;20021;-67
2021/08/31 11:28:28;;;;;;;3.75;3.35;;;19.30;86.00;;;;;;5052073;28;20507;-67
2021/08/31 11:31:06;;;;;;;4.00;3.10;;;19.20;85.90;;;;;;5047829;28;20033;-67
2021/08/31 11:33:38;;;;;;;5.03;2.88;;;19.10;86.10;;;;;;5053909;28;20025;-67
2021/08/31 11:36:05;;;;;;;4.35;3.55;;;19.10;86.50;;;;;;5053590;28;20045;-67
2021/08/31 11:38:34;;;;;;;4.07;3.50;;;19.00;86.60;;;;;;5050334;28;20029;-67
2021/08/31 11:41:22;;;;;;;3.17;2.70;;;19.00;86.60;;;;;;5054182;28;20028;-66
2021/08/31 11:43:52;;;;;;;3.83;3.00;;;18.90;86.10;;;;;;5053081;28;20420;-67
2021/08/31 11:46:23;;;;;;;4.43;3.25;;;18.90;86.40;;;;;;5053358;28;20052;-67
2021/08/31 11:48:49;;;;;;;3.40;2.70;;;18.90;86.20;;;;;;5053545;28;20103;-67
2021/08/31 11:51:21;;;;;;;6.10;3.70;;;18.90;86.40;;;;;;5053782;28;20536;-67
2021/08/31 11:54:02;;;;;;;3.83;3.08;;;18.90;86.20;;;;;;5053654;28;20472;-67
2021/08/31 11:56:28;;;;;;;3.72;2.90;;;18.90;86.00;;;;;;5052824;28;20484;-67
2021/08/31 11:58:53;;;;;;;4.05;3.28;;;19.00;86.40;;;;;;5050616;28;20032;-67
2021/08/31 12:01:30;;;;;;;3.58;2.83;;;19.00;86.20;;;;;;5053153;28;20692;-66
2021/08/31 12:04:11;;;;;;;4.13;3.08;;;19.10;85.90;;;;;;5053392;28;20385;-66
2021/08/31 12:06:38;;;;;;;4.43;2.87;;;19.10;86.10;;;;;;5053261;28;20017;-67
2021/08/31 12:09:03;;;;;;;4.28;3.13;;;19.10;86.20;;;;;;5052907;28;20272;-67
2021/08/31 12:11:32;;;;;;;4.43;3.72;;;19.10;86.10;;;;;;5053330;28;20561;-67
2021/08/31 12:13:57;;;;;;;4.28;3.00;;;19.10;85.90;;;;;;5043671;28;20567;-67
2021/08/31 12:16:23;;;;;;;3.50;2.80;;;19.10;85.90;;;;;;5050399;28;20021;-67
2021/08/31 12:18:49;;;;;;;4.53;2.80;;;19.10;85.80;;;;;;5056891;28;20388;-67
2021/08/31 12:21:24;;;;;;;3.42;2.60;;;19.10;85.50;;;;;;5053183;28;20029;-66
2021/08/31 12:23:52;;;;;;;3.08;2.78;;;19.10;85.20;;;;;;5052954;28;20029;-70
2021/08/31 12:26:35;;;;;;;4.55;3.03;;;19.00;85.40;;;;;;5049603;28;20060;-68
2021/08/31 12:29:04;;;;;;;3.08;2.65;;;19.10;85.10;;;;;;5046798;28;20040;-68
2021/08/31 12:31:30;;;;;;;3.80;3.15;;;19.30;85.60;;;;;;5063481;28;20020;-67
2021/08/31 12:33:57;;;;;;;3.35;2.88;;;19.50;85.50;;;;;;5057138;28;20028;-67
2021/08/31 12:36:33;;;;;;;3.72;3.13;;;19.60;85.40;;;;;;5052732;28;20025;-67
2021/08/31 12:39:05;;;;;;;6.70;3.30;;;19.70;84.80;;;;;;5052142;28;20112;-69
2021/08/31 12:41:43;;;;;;;5.10;3.28;;;19.70;84.90;;;;;;5051127;28;20029;-68
2021/08/31 12:44:20;;;;;;;4.68;3.35;;;19.70;84.60;;;;;;5032998;28;20620;-68
2021/08/31 12:46:47;;;;;;;90.35;60.83;;;19.70;84.50;;;;;;5049333;28;20057;-67
2021/08/31 12:49:16;;;;;;;6.13;4.70;;;19.70;84.80;;;;;;5052583;28;20132;-68
2021/08/31 12:51:43;;;;;;;5.10;3.35;;;19.70;84.80;;;;;;5052256;28;20033;-67
2021/08/31 12:54:25;;;;;;;4.35;3.40;;;19.70;84.70;;;;;;5052873;28;20028;-69
2021/08/31 12:57:00;;;;;;;5.18;3.85;;;19.90;85.20;;;;;;5051047;28;20104;-67